This is the latest recevied weather packets stored in our database for station/object DL3APY-3. If no packets are shown the sender has not sent any weather packets the latest 10 day(s).
| Time | Temp. | Humidity | Pressure | Rain* | Wind** | Luminosity | Snow |
|---|---|---|---|---|---|---|---|
| 1777396835 | 15° C | 47% | 1033.6 hPa | 0 mm | - | - | - |
| 1777396629 | 15° C | 48% | 1033.5 hPa | 0 mm | - | - | - |
| 1777396560 | 15° C | 47% | 1033.5 hPa | 0 mm | - | - | - |
| 1777396492 | 15° C | 47% | 1033.5 hPa | 0 mm | - | - | - |
| 1777396423 | 15° C | 47% | 1033.5 hPa | 0 mm | - | - | - |
| 1777396079 | 15° C | 48% | 1033.4 hPa | 0 mm | - | - | - |
| 1777395873 | 15° C | 48% | 1033.4 hPa | 0 mm | - | - | - |
| 1777395736 | 15° C | 49% | 1033.4 hPa | 0 mm | - | - | - |
| 1777395392 | 15.56° C | 49% | 1033.3 hPa | 0 mm | - | - | - |
| 1777394225 | 15.56° C | 52% | 1033.2 hPa | 0 mm | - | - | - |
| 1777394156 | 16.11° C | 54% | 1033.2 hPa | 0 mm | - | - | - |
| 1777392164 | 16.67° C | 55% | 1033.2 hPa | 0 mm | - | - | - |
| 1777391477 | 16.67° C | 57% | 1033.2 hPa | 0 mm | - | - | - |
| 1777391408 | 16.67° C | 58% | 1033.2 hPa | 0 mm | - | - | - |
| 1777390516 | 16.11° C | 62% | 1033 hPa | 0 mm | - | - | - |
| 1777390378 | 16.11° C | 61% | 1033.2 hPa | 0 mm | - | - | - |
| 1777390309 | 16.11° C | 62% | 1033.2 hPa | 0 mm | - | - | - |
| 1777390241 | 16.11° C | 61% | 1033.1 hPa | 0 mm | - | - | - |
| 1777390035 | 16.67° C | 62% | 1033.1 hPa | 0 mm | - | - | - |
| 1777389828 | 16.11° C | 61% | 1033.1 hPa | 0 mm | - | - | - |
| 1777389760 | 16.67° C | 61% | 1033.2 hPa | 0 mm | - | - | - |
| 1777175675 | -0.56° C | 10% | - | 0 mm | - | - | - |
| 1777175538 | -1.11° C | 10% | - | 0 mm | - | - | - |
| 1777175469 | -1.11° C | 10% | - | 0 mm | - | - | - |
| 1777174853 | -1.11° C | 10% | - | 0 mm | - | - | - |
* Rain latest hour (hover to see other rain measurements)
** Current wind speed in m/s (hover to see current wind gust speed)